Аэропорт: Казань. Казань

ICAO: UWKD

METAR:
2024-07-24 16:00:00
UWKD 241600Z 05006MPS CAVOK 20/11 Q1006 R29/CLRD70 NOSIG RMK QFE743/0991
TAF:
2024-07-24 13:56:00
TAF UWKD 241356Z 2415/2515 02005G12MPS 9999 SCT020 TX21/2415Z TN13/2501Z 
  TEMPO 2415/2418 BKN030CB 
  TEMPO 2512/2515 -SHRA BKN030CB